createdAt,value
2023-05-19T00:00:25.657Z,100810.03
2023-05-19T00:02:56.415Z,100800.72
2023-05-19T00:05:24.917Z,100801.78
2023-05-19T00:07:53.394Z,100802.69
2023-05-19T00:10:21.870Z,100796.84
2023-05-19T00:12:52.392Z,100796.47
2023-05-19T00:15:21.971Z,100798.41
2023-05-19T00:17:49.627Z,100800.56
2023-05-19T00:20:18.952Z,100796.13
2023-05-19T00:22:47.267Z,100804.06
2023-05-19T00:25:15.074Z,100800.06
2023-05-19T00:27:43.199Z,100802.66
2023-05-19T00:30:11.539Z,100802.06
2023-05-19T00:32:39.867Z,100808.06
2023-05-19T00:35:08.215Z,100802.94
2023-05-19T00:37:37.191Z,100806.53
2023-05-19T00:40:06.660Z,100793.88
2023-05-19T00:42:34.739Z,100793.94
2023-05-19T00:45:02.516Z,100791.63
2023-05-19T00:47:30.476Z,100779.13
2023-05-19T00:49:58.439Z,100794.75
2023-05-19T00:52:26.518Z,100788.72
2023-05-19T00:54:56.793Z,100790.31
2023-05-19T00:57:26.276Z,100783.88
2023-05-19T00:59:54.161Z,100782.22
2023-05-19T01:02:22.498Z,100777.22
2023-05-19T01:04:52.067Z,100779.81
2023-05-19T01:07:21.307Z,100784.44
2023-05-19T01:09:49.734Z,100771.69
2023-05-19T01:12:19.119Z,100773.09
2023-05-19T01:14:46.896Z,100757.78
2023-05-19T01:17:17.926Z,100764.63
2023-05-19T01:19:54.162Z,100766.31
2023-05-19T01:22:33.428Z,100760.44
2023-05-19T01:25:19.990Z,100756.25
2023-05-19T01:28:09.048Z,100758.63
2023-05-19T01:30:40.945Z,100765.00
2023-05-19T01:33:11.164Z,100771.63
2023-05-19T01:35:41.108Z,100761.56
2023-05-19T01:38:10.074Z,100764.78
2023-05-19T01:40:38.735Z,100771.63
2023-05-19T01:43:07.559Z,100758.69
2023-05-19T01:45:35.527Z,100770.88
2023-05-19T01:48:10.002Z,100765.91
2023-05-19T01:50:40.755Z,100770.25
2023-05-19T01:53:08.833Z,100773.63
2023-05-19T01:55:37.117Z,100775.56
2023-05-19T01:58:10.802Z,100773.88
2023-05-19T02:00:46.858Z,100768.97
2023-05-19T02:03:31.628Z,100777.53
2023-05-19T02:06:04.393Z,100770.97
2023-05-19T02:08:40.529Z,100776.84
2023-05-19T02:11:14.156Z,100778.91
2023-05-19T02:13:45.026Z,100786.91
2023-05-19T02:16:14.835Z,100779.19
2023-05-19T02:18:46.218Z,100781.44
2023-05-19T02:21:14.164Z,100777.88
2023-05-19T02:23:42.165Z,100781.31
2023-05-19T02:26:10.082Z,100780.31
2023-05-19T02:28:37.829Z,100774.59
2023-05-19T02:31:08.861Z,100777.31
2023-05-19T02:33:37.499Z,100773.03
2023-05-19T02:36:07.444Z,100768.28
2023-05-19T02:38:36.426Z,100768.34
2023-05-19T02:41:04.571Z,100766.81
2023-05-19T02:43:32.650Z,100768.63
2023-05-19T02:46:01.060Z,100767.31
2023-05-19T02:48:28.921Z,100758.06
2023-05-19T02:50:56.943Z,100757.22
2023-05-19T02:53:27.041Z,100756.66
2023-05-19T02:55:55.150Z,100753.13
2023-05-19T02:58:23.223Z,100750.38
2023-05-19T03:00:51.776Z,100747.16
2023-05-19T03:03:20.232Z,100743.72
2023-05-19T03:05:48.623Z,100742.63
2023-05-19T03:08:16.725Z,100746.09
2023-05-19T03:10:46.777Z,100750.38
2023-05-19T03:13:14.872Z,100744.38
2023-05-19T03:15:42.917Z,100760.78
2023-05-19T03:18:12.053Z,100758.19
2023-05-19T03:20:42.579Z,100759.81
2023-05-19T03:23:10.602Z,100759.00
2023-05-19T03:25:38.822Z,100760.72
2023-05-19T03:28:08.423Z,100754.06
2023-05-19T03:30:36.497Z,100748.41
2023-05-19T03:33:15.390Z,100754.88
2023-05-19T03:35:44.402Z,100760.84
2023-05-19T03:38:12.507Z,100762.44
2023-05-19T03:40:44.234Z,100767.81
2023-05-19T03:43:16.398Z,100767.09
2023-05-19T03:45:50.228Z,100770.75
2023-05-19T03:48:36.790Z,100764.97
2023-05-19T03:51:35.050Z,100764.75
2023-05-19T03:54:19.937Z,100770.03
2023-05-19T03:56:48.164Z,100770.59
2023-05-19T03:59:17.686Z,100767.03
2023-05-19T04:01:46.516Z,100762.44
2023-05-19T04:04:15.019Z,100760.00
2023-05-19T04:06:43.350Z,100764.38
2023-05-19T04:09:14.056Z,100765.03
2023-05-19T04:11:42.154Z,100769.22
2023-05-19T04:14:10.420Z,100767.00
2023-05-19T04:16:39.904Z,100771.28
2023-05-19T04:19:08.696Z,100777.88
2023-05-19T04:21:37.183Z,100777.97
2023-05-19T04:24:06.725Z,100774.88
2023-05-19T04:26:36.258Z,100782.16
2023-05-19T04:29:05.122Z,100773.34
2023-05-19T04:31:34.576Z,100781.03
2023-05-19T04:34:05.935Z,100772.50
2023-05-19T04:36:34.135Z,100775.09
2023-05-19T04:39:08.246Z,100771.81
2023-05-19T04:41:40.616Z,100776.97
2023-05-19T04:44:10.281Z,100776.75
2023-05-19T04:46:39.155Z,100780.69
2023-05-19T04:49:09.032Z,100785.91
2023-05-19T04:51:37.108Z,100787.06
2023-05-19T04:54:05.405Z,100785.88
2023-05-19T04:56:34.534Z,100791.25
2023-05-19T04:59:02.932Z,100792.00
2023-05-19T05:01:33.175Z,100796.13
2023-05-19T05:04:03.399Z,100786.56
2023-05-19T05:06:33.621Z,100803.69
2023-05-19T05:09:03.784Z,100794.22
2023-05-19T05:11:35.195Z,100804.00
2023-05-19T05:14:04.139Z,100796.66
2023-05-19T05:16:33.333Z,100802.06
2023-05-19T05:19:02.586Z,100800.50
2023-05-19T05:21:31.868Z,100796.56
2023-05-19T05:24:02.498Z,100796.72
2023-05-19T05:26:34.647Z,100790.81
2023-05-19T05:29:02.502Z,100794.19
2023-05-19T05:31:31.576Z,100798.00
2023-05-19T05:34:00.229Z,100793.41
2023-05-19T05:36:32.294Z,100793.38
2023-05-19T05:39:04.117Z,100792.47
2023-05-19T05:41:35.627Z,100786.50
2023-05-19T05:44:10.007Z,100789.94
2023-05-19T05:46:40.691Z,100781.16
2023-05-19T05:49:08.886Z,100786.06
2023-05-19T05:51:37.325Z,100795.31
2023-05-19T05:54:07.795Z,100797.75
2023-05-19T05:56:39.467Z,100785.59
2023-05-19T05:59:11.996Z,100792.22
2023-05-19T06:01:40.826Z,100790.03
2023-05-19T06:04:10.397Z,100782.63
2023-05-19T06:06:39.189Z,100789.81
2023-05-19T06:09:08.844Z,100788.97
2023-05-19T06:11:37.461Z,100790.38
2023-05-19T06:14:06.033Z,100792.44
2023-05-19T06:16:49.283Z,100791.56
2023-05-19T06:19:20.289Z,100786.63
2023-05-19T06:21:49.108Z,100786.31
2023-05-19T06:24:18.479Z,100788.06
2023-05-19T06:26:46.757Z,100784.06
2023-05-19T06:29:16.439Z,100787.16
2023-05-19T06:31:44.565Z,100789.03
2023-05-19T06:34:17.888Z,100790.22
2023-05-19T06:36:47.961Z,100789.50
2023-05-19T06:39:18.001Z,100793.72
2023-05-19T06:41:46.828Z,100797.38
2023-05-19T06:44:28.050Z,100799.66
2023-05-19T06:46:55.919Z,100801.19
2023-05-19T06:49:24.662Z,100800.22
2023-05-19T06:51:52.890Z,100792.06
2023-05-19T06:54:23.326Z,100806.31
2023-05-19T06:56:51.149Z,100799.19
2023-05-19T06:59:21.946Z,100796.13
2023-05-19T07:01:50.738Z,100798.03
2023-05-19T07:04:18.841Z,100781.84
2023-05-19T07:06:46.904Z,100789.53
2023-05-19T07:09:14.821Z,100792.59
2023-05-19T07:11:47.125Z,100793.13
2023-05-19T07:14:15.297Z,100787.28
2023-05-19T07:16:43.595Z,100777.72
2023-05-19T07:19:11.900Z,100781.66
2023-05-19T07:21:39.702Z,100781.63
2023-05-19T07:24:07.687Z,100783.28
2023-05-19T07:26:35.762Z,100780.34
2023-05-19T07:29:04.968Z,100774.53
2023-05-19T07:31:32.745Z,100777.53
2023-05-19T07:34:00.750Z,100778.44
2023-05-19T07:36:28.681Z,100777.38
2023-05-19T07:38:56.478Z,100769.56
2023-05-19T07:41:24.530Z,100772.31
2023-05-19T07:43:52.516Z,100773.31
2023-05-19T07:46:22.309Z,100771.28
2023-05-19T07:48:50.489Z,100776.06
2023-05-19T07:51:19.377Z,100772.69
2023-05-19T07:53:48.526Z,100764.31
2023-05-19T07:56:17.047Z,100763.50
2023-05-19T07:58:44.960Z,100761.66
2023-05-19T08:01:12.869Z,100757.78
2023-05-19T08:03:42.218Z,100757.13
2023-05-19T08:06:10.028Z,100753.31
2023-05-19T08:08:37.825Z,100751.81
2023-05-19T08:11:06.592Z,100744.63
2023-05-19T08:13:34.785Z,100748.41
2023-05-19T08:16:03.009Z,100745.75
2023-05-19T08:18:31.767Z,100742.28
2023-05-19T08:21:01.420Z,100741.31
2023-05-19T08:23:29.800Z,100745.00
2023-05-19T08:25:57.773Z,100747.41
2023-05-19T08:28:26.409Z,100746.66
2023-05-19T08:30:54.562Z,100746.13
2023-05-19T08:33:22.933Z,100739.72
2023-05-19T08:35:51.235Z,100736.34
2023-05-19T08:38:20.936Z,100724.97
2023-05-19T08:40:49.226Z,100725.16
2023-05-19T08:43:17.269Z,100719.25
2023-05-19T08:45:46.583Z,100722.22
2023-05-19T08:48:15.439Z,100720.16
2023-05-19T08:50:49.199Z,100722.22
2023-05-19T08:53:33.267Z,100717.56
2023-05-19T08:56:11.032Z,100714.94
2023-05-19T08:58:40.328Z,100712.63
2023-05-19T09:01:08.873Z,100697.38
2023-05-19T09:03:38.536Z,100698.19
2023-05-19T09:06:10.809Z,100694.16
2023-05-19T09:08:39.072Z,100704.78
2023-05-19T09:11:09.336Z,100699.66
2023-05-19T09:13:39.392Z,100704.06
2023-05-19T09:16:08.581Z,100690.47
2023-05-19T09:18:40.090Z,100682.75
2023-05-19T09:21:10.316Z,100679.41
2023-05-19T09:23:38.428Z,100688.28
2023-05-19T09:26:08.015Z,100682.44
2023-05-19T09:28:38.393Z,100674.81
2023-05-19T09:31:07.016Z,100676.72
2023-05-19T09:33:36.205Z,100662.75
2023-05-19T09:36:06.234Z,100659.06
2023-05-19T09:38:34.309Z,100661.91
2023-05-19T09:41:02.920Z,100657.22
2023-05-19T09:43:31.829Z,100670.84
2023-05-19T09:46:07.512Z,100660.28
2023-05-19T09:48:36.835Z,100661.66
2023-05-19T09:51:06.613Z,100664.91
2023-05-19T09:53:35.785Z,100661.53
2023-05-19T09:56:04.700Z,100662.28
2023-05-19T09:58:34.833Z,100658.63
2023-05-19T10:01:02.905Z,100680.31
2023-05-19T10:03:33.219Z,100663.16
2023-05-19T10:06:02.405Z,100651.78
2023-05-19T10:08:32.036Z,100658.13
2023-05-19T10:11:00.373Z,100668.09
2023-05-19T10:13:30.685Z,100653.94
2023-05-19T10:16:00.410Z,100659.03
2023-05-19T10:18:29.439Z,100652.13
2023-05-19T10:21:00.007Z,100650.28
2023-05-19T10:23:27.870Z,100646.97
2023-05-19T10:25:57.186Z,100645.03
2023-05-19T10:28:28.047Z,100641.81
2023-05-19T10:30:57.631Z,100642.13
2023-05-19T10:33:33.352Z,100647.69
2023-05-19T10:36:11.920Z,100637.91
2023-05-19T10:38:43.727Z,100639.44
2023-05-19T10:41:14.222Z,100628.09
2023-05-19T10:43:50.407Z,100626.47
2023-05-19T10:46:18.470Z,100635.41
2023-05-19T10:48:47.280Z,100630.53
2023-05-19T10:51:17.342Z,100632.28
2023-05-19T10:53:47.121Z,100625.03
2023-05-19T10:56:30.428Z,100625.13
2023-05-19T10:58:58.524Z,100629.25
2023-05-19T11:01:31.453Z,100623.13
2023-05-19T11:04:05.830Z,100623.94
2023-05-19T11:06:37.736Z,100619.75
2023-05-19T11:09:12.799Z,100608.16
2023-05-19T11:11:47.865Z,100616.53
2023-05-19T11:14:16.630Z,100623.31
2023-05-19T11:16:47.792Z,100617.66
2023-05-19T11:19:20.231Z,100608.56
2023-05-19T11:21:50.489Z,100612.19
2023-05-19T11:24:37.563Z,100607.16
2023-05-19T11:27:20.576Z,100612.16
2023-05-19T11:29:49.203Z,100611.81
2023-05-19T11:32:17.247Z,100612.06
2023-05-19T11:34:45.795Z,100600.00
2023-05-19T11:37:15.162Z,100605.06
2023-05-19T11:39:43.959Z,100597.81
2023-05-19T11:42:12.039Z,100600.72
2023-05-19T11:44:41.319Z,100600.06
2023-05-19T11:47:09.043Z,100599.25
2023-05-19T11:49:36.900Z,100581.94
2023-05-19T11:52:05.953Z,100589.78
2023-05-19T11:54:36.655Z,100590.03
2023-05-19T11:57:05.236Z,100584.88
2023-05-19T11:59:35.590Z,100587.09
2023-05-19T12:02:04.901Z,100578.09
2023-05-19T12:04:32.753Z,100578.69
2023-05-19T12:07:03.815Z,100568.75
2023-05-19T12:09:31.720Z,100570.88
2023-05-19T12:12:01.895Z,100575.66
2023-05-19T12:14:31.354Z,100572.00
2023-05-19T12:16:59.434Z,100576.44
2023-05-19T12:19:27.922Z,100570.09
2023-05-19T12:21:55.993Z,100577.19
2023-05-19T12:24:23.884Z,100577.84
2023-05-19T12:26:51.929Z,100571.13
2023-05-19T12:29:20.933Z,100579.91
2023-05-19T12:31:49.541Z,100573.56
2023-05-19T12:34:17.218Z,100571.91
2023-05-19T12:36:44.993Z,100567.91
2023-05-19T12:39:13.959Z,100562.09
2023-05-19T12:41:41.833Z,100557.72
2023-05-19T12:44:15.638Z,100551.00
2023-05-19T12:46:44.681Z,100556.69
2023-05-19T12:49:12.594Z,100557.94
2023-05-19T12:51:40.604Z,100560.16
2023-05-19T12:54:09.063Z,100554.63
2023-05-19T12:56:36.707Z,100545.66
2023-05-19T12:59:04.496Z,100547.66
2023-05-19T13:01:32.437Z,100536.09
2023-05-19T13:04:03.355Z,100542.81
2023-05-19T13:06:33.649Z,100542.84
2023-05-19T13:09:01.441Z,100540.34
2023-05-19T13:11:30.230Z,100540.47
2023-05-19T13:13:58.712Z,100545.53
2023-05-19T13:16:26.653Z,100550.34
2023-05-19T13:18:54.962Z,100542.31
2023-05-19T13:21:24.915Z,100547.84
2023-05-19T13:23:53.414Z,100534.88
2023-05-19T13:26:21.349Z,100530.47
2023-05-19T13:28:49.227Z,100537.84
2023-05-19T13:31:16.834Z,100519.50
2023-05-19T13:33:44.758Z,100512.53
2023-05-19T13:36:12.679Z,100521.13
2023-05-19T13:38:42.072Z,100529.03
2023-05-19T13:41:10.870Z,100523.16
2023-05-19T13:43:38.941Z,100539.66
2023-05-19T13:46:06.879Z,100527.09
2023-05-19T13:48:34.603Z,100522.31
2023-05-19T13:51:02.441Z,100528.47
2023-05-19T13:53:32.738Z,100523.34
2023-05-19T13:56:02.308Z,100520.78
2023-05-19T13:58:30.457Z,100522.09
2023-05-19T14:00:59.993Z,100517.84
2023-05-19T14:03:28.133Z,100517.44
2023-05-19T14:05:56.044Z,100512.56
2023-05-19T14:08:23.926Z,100511.19
2023-05-19T14:10:52.196Z,100506.91
2023-05-19T14:13:32.313Z,100516.59
2023-05-19T14:16:00.943Z,100513.63
2023-05-19T14:18:28.649Z,100516.72
2023-05-19T14:20:56.500Z,100514.63
2023-05-19T14:23:24.212Z,100519.38
2023-05-19T14:25:51.844Z,100512.69
2023-05-19T14:28:20.942Z,100520.94
2023-05-19T14:30:49.648Z,100513.69
2023-05-19T14:33:17.577Z,100510.84
2023-05-19T14:35:45.378Z,100512.72
2023-05-19T14:38:13.775Z,100508.25
2023-05-19T14:40:42.286Z,100501.75
2023-05-19T14:43:09.991Z,100492.81
2023-05-19T14:45:39.672Z,100489.16
2023-05-19T14:48:07.328Z,100489.84
2023-05-19T14:50:35.233Z,100493.72
2023-05-19T14:53:02.870Z,100488.94
2023-05-19T14:55:30.688Z,100485.53
2023-05-19T14:57:58.145Z,100489.69
2023-05-19T15:00:26.196Z,100487.25
2023-05-19T15:02:56.352Z,100479.66
2023-05-19T15:05:24.559Z,100482.69
2023-05-19T15:07:52.312Z,100484.63
2023-05-19T15:10:20.862Z,100486.13
2023-05-19T15:12:48.704Z,100478.09
2023-05-19T15:15:17.228Z,100489.66
2023-05-19T15:17:45.948Z,100471.72
2023-05-19T15:20:15.165Z,100465.25
2023-05-19T15:22:42.905Z,100475.47
2023-05-19T15:25:11.133Z,100467.00
2023-05-19T15:27:39.115Z,100466.16
2023-05-19T15:30:07.222Z,100457.69
2023-05-19T15:32:35.079Z,100471.09
2023-05-19T15:35:02.898Z,100467.41
2023-05-19T15:37:33.608Z,100457.38
2023-05-19T15:40:01.466Z,100456.31
2023-05-19T15:42:29.904Z,100465.28
2023-05-19T15:44:57.845Z,100461.28
2023-05-19T15:47:26.056Z,100464.53
2023-05-19T15:49:53.791Z,100459.59
2023-05-19T15:52:22.294Z,100460.63
2023-05-19T15:54:51.479Z,100456.31
2023-05-19T15:57:19.110Z,100468.25
2023-05-19T15:59:46.751Z,100462.00
2023-05-19T16:02:15.635Z,100461.59
2023-05-19T16:04:43.659Z,100455.63
2023-05-19T16:07:11.489Z,100460.66
2023-05-19T16:09:39.045Z,100459.88
2023-05-19T16:12:08.815Z,100456.88
2023-05-19T16:14:37.918Z,100460.69
2023-05-19T16:17:11.363Z,100460.38
2023-05-19T16:19:39.108Z,100459.81
2023-05-19T16:22:06.886Z,100449.09
2023-05-19T16:24:34.735Z,100451.78
2023-05-19T16:27:02.473Z,100456.53
2023-05-19T16:29:31.547Z,100453.47
2023-05-19T16:31:59.205Z,100448.28
2023-05-19T16:34:28.643Z,100450.72
2023-05-19T16:36:57.522Z,100450.69
2023-05-19T16:39:25.339Z,100437.97
2023-05-19T16:41:53.302Z,100445.94
2023-05-19T16:44:21.603Z,100447.97
2023-05-19T16:46:50.648Z,100430.13
2023-05-19T16:49:18.219Z,100434.28
2023-05-19T16:51:47.571Z,100438.09
2023-05-19T16:54:16.649Z,100433.53
2023-05-19T16:56:44.898Z,100440.28
2023-05-19T16:59:12.909Z,100441.13
2023-05-19T17:01:40.805Z,100438.69
2023-05-19T17:04:10.000Z,100437.16
2023-05-19T17:06:38.121Z,100433.91
2023-05-19T17:09:06.033Z,100433.09
2023-05-19T17:11:33.874Z,100431.16
2023-05-19T17:14:01.984Z,100431.34
2023-05-19T17:16:30.056Z,100434.56
2023-05-19T17:18:58.193Z,100429.84
2023-05-19T17:21:27.864Z,100430.88
2023-05-19T17:23:55.933Z,100419.84
2023-05-19T17:26:23.989Z,100436.31
2023-05-19T17:28:52.018Z,100441.41
2023-05-19T17:31:22.846Z,100437.88
2023-05-19T17:33:50.807Z,100430.66
2023-05-19T17:36:18.656Z,100433.44
2023-05-19T17:38:47.914Z,100442.84
2023-05-19T17:41:16.020Z,100432.22
2023-05-19T17:43:43.646Z,100447.47
2023-05-19T17:46:11.804Z,100448.41
2023-05-19T17:48:39.895Z,100452.06
2023-05-19T17:51:08.081Z,100448.97
2023-05-19T17:53:36.594Z,100445.09
2023-05-19T17:56:08.959Z,100455.81
2023-05-19T17:58:36.973Z,100457.72
2023-05-19T18:01:04.801Z,100451.06
2023-05-19T18:03:33.556Z,100448.38
2023-05-19T18:06:02.484Z,100452.41
2023-05-19T18:08:31.867Z,100451.13
2023-05-19T18:11:00.496Z,100454.72
2023-05-19T18:13:31.055Z,100452.88
2023-05-19T18:15:59.672Z,100454.78
2023-05-19T18:18:27.525Z,100455.38
2023-05-19T18:20:55.326Z,100462.47
2023-05-19T18:23:23.113Z,100470.38
2023-05-19T18:25:53.467Z,100459.94
2023-05-19T18:28:21.776Z,100460.97
2023-05-19T18:30:59.102Z,100457.88
2023-05-19T18:33:28.465Z,100454.38
2023-05-19T18:35:57.410Z,100449.09
2023-05-19T18:38:25.368Z,100460.75
2023-05-19T18:40:58.282Z,100456.47
2023-05-19T18:43:26.030Z,100461.63
2023-05-19T18:45:58.810Z,100460.44
2023-05-19T18:48:27.137Z,100449.53
2023-05-19T18:50:55.071Z,100463.63
2023-05-19T18:53:23.425Z,100467.25
2023-05-19T18:55:51.429Z,100464.75
2023-05-19T18:58:19.721Z,100469.91
2023-05-19T19:00:47.461Z,100463.34
2023-05-19T19:03:17.144Z,100462.63
2023-05-19T19:05:45.294Z,100464.84
2023-05-19T19:08:13.239Z,100454.91
2023-05-19T19:10:41.201Z,100447.84
2023-05-19T19:13:09.042Z,100461.91
2023-05-19T19:15:37.618Z,100453.72
2023-05-19T19:18:06.184Z,100470.59
2023-05-19T19:20:37.119Z,100469.75
2023-05-19T19:23:06.443Z,100469.34
2023-05-19T19:25:34.437Z,100456.47
2023-05-19T19:28:02.431Z,100476.75
2023-05-19T19:30:30.512Z,100480.22
2023-05-19T19:32:59.530Z,100484.50
2023-05-19T19:35:27.357Z,100479.72
2023-05-19T19:37:57.001Z,100489.22
2023-05-19T19:40:25.153Z,100483.50
2023-05-19T19:42:53.053Z,100492.06
2023-05-19T19:45:21.916Z,100493.06
2023-05-19T19:47:49.595Z,100497.00
2023-05-19T19:50:17.573Z,100495.50
2023-05-19T19:52:45.632Z,100488.72
2023-05-19T19:55:14.929Z,100485.25
2023-05-19T19:57:45.001Z,100493.00
2023-05-19T20:00:13.353Z,100489.41
2023-05-19T20:02:59.574Z,100473.22
2023-05-19T20:05:29.551Z,100492.75
2023-05-19T20:07:59.502Z,100485.72
2023-05-19T20:10:28.708Z,100485.28
2023-05-19T20:13:00.056Z,100496.66
2023-05-19T20:15:28.444Z,100484.50
2023-05-19T20:17:56.543Z,100486.28
2023-05-19T20:20:24.689Z,100484.06
2023-05-19T20:22:52.187Z,100489.69
2023-05-19T20:25:19.966Z,100482.06
2023-05-19T20:27:48.947Z,100485.69
2023-05-19T20:30:19.602Z,100490.34
2023-05-19T20:32:47.427Z,100487.06
2023-05-19T20:35:15.243Z,100485.69
2023-05-19T20:37:42.825Z,100486.66
2023-05-19T20:40:11.414Z,100483.50
2023-05-19T20:42:39.763Z,100497.53
2023-05-19T20:45:09.794Z,100491.03
2023-05-19T20:47:37.622Z,100481.25
2023-05-19T20:50:05.755Z,100471.00
2023-05-19T20:52:33.623Z,100483.56
2023-05-19T20:55:01.219Z,100478.66
2023-05-19T20:57:29.017Z,100480.00
2023-05-19T20:59:56.872Z,100475.97
2023-05-19T21:02:26.250Z,100479.66
2023-05-19T21:04:54.070Z,100485.41
2023-05-19T21:07:22.307Z,100475.91
2023-05-19T21:09:51.425Z,100482.81
2023-05-19T21:12:23.965Z,100484.38
2023-05-19T21:14:51.969Z,100476.97
2023-05-19T21:17:21.029Z,100489.13
2023-05-19T21:19:52.962Z,100489.47
2023-05-19T21:22:21.364Z,100486.28
2023-05-19T21:24:49.721Z,100486.41
2023-05-19T21:27:17.866Z,100474.41
2023-05-19T21:29:46.206Z,100481.78
2023-05-19T21:32:14.360Z,100478.47
2023-05-19T21:34:43.607Z,100480.00
2023-05-19T21:37:13.752Z,100487.16
2023-05-19T21:39:42.427Z,100486.81
2023-05-19T21:42:10.764Z,100492.03
2023-05-19T21:44:39.386Z,100484.19
2023-05-19T21:47:07.232Z,100489.41
2023-05-19T21:49:35.426Z,100484.28
2023-05-19T21:52:03.454Z,100490.50
2023-05-19T21:54:33.193Z,100492.47
2023-05-19T21:57:02.484Z,100484.38
2023-05-19T21:59:30.787Z,100482.72
2023-05-19T22:01:58.922Z,100486.41
2023-05-19T22:04:27.615Z,100493.88
2023-05-19T22:06:55.588Z,100487.06
2023-05-19T22:09:23.782Z,100487.66
2023-05-19T22:11:52.970Z,100496.69
2023-05-19T22:14:21.501Z,100493.22
2023-05-19T22:16:50.217Z,100492.84
2023-05-19T22:19:18.814Z,100490.47
2023-05-19T22:21:46.546Z,100494.13
2023-05-19T22:24:14.319Z,100487.78
2023-05-19T22:26:43.423Z,100485.03
2023-05-19T22:29:15.307Z,100484.63
2023-05-19T22:31:43.253Z,100490.22
2023-05-19T22:34:12.785Z,100488.53
2023-05-19T22:36:41.689Z,100487.22
2023-05-19T22:39:09.797Z,100480.56
2023-05-19T22:41:38.112Z,100476.19
2023-05-19T22:44:06.767Z,100475.69
2023-05-19T22:46:36.106Z,100469.94
2023-05-19T22:49:04.177Z,100464.13
2023-05-19T22:51:33.504Z,100466.25
2023-05-19T22:54:01.705Z,100470.31
2023-05-19T22:56:30.120Z,100468.00
2023-05-19T22:58:58.235Z,100469.78
2023-05-19T23:01:26.492Z,100467.16
2023-05-19T23:03:55.648Z,100463.09
2023-05-19T23:06:23.987Z,100474.28
2023-05-19T23:08:59.147Z,100468.88
2023-05-19T23:11:27.395Z,100468.06
2023-05-19T23:13:55.397Z,100472.66
2023-05-19T23:16:23.829Z,100469.28
2023-05-19T23:18:51.914Z,100469.16
2023-05-19T23:21:21.571Z,100472.75
2023-05-19T23:23:49.518Z,100472.22
2023-05-19T23:26:17.429Z,100466.28
2023-05-19T23:28:45.653Z,100462.00
2023-05-19T23:31:13.858Z,100466.06
2023-05-19T23:33:41.932Z,100460.22
2023-05-19T23:36:11.032Z,100464.09
2023-05-19T23:38:40.673Z,100465.03
2023-05-19T23:41:08.718Z,100452.13
2023-05-19T23:43:37.854Z,100460.97
2023-05-19T23:46:06.594Z,100454.34
2023-05-19T23:48:35.694Z,100447.88
2023-05-19T23:51:03.673Z,100451.22
2023-05-19T23:53:31.808Z,100446.44
2023-05-19T23:56:01.895Z,100448.56
2023-05-19T23:58:29.981Z,100449.56
